sensor_id;sensor_type;location;lat;lon;timestamp;P1;durP1;ratioP1;P2;durP2;ratioP2
31674;SDS011;18276;45.520;11.018;2022-10-15T00:01:15;94.88;;;45.30;;
31674;SDS011;18276;45.520;11.018;2022-10-15T00:03:43;89.75;;;44.42;;
31674;SDS011;18276;45.520;11.018;2022-10-15T00:06:14;83.38;;;43.22;;
31674;SDS011;18276;45.520;11.018;2022-10-15T00:08:43;87.85;;;41.83;;
31674;SDS011;18276;45.520;11.018;2022-10-15T00:11:12;86.50;;;43.25;;
31674;SDS011;18276;45.520;11.018;2022-10-15T00:13:47;92.70;;;43.90;;
31674;SDS011;18276;45.520;11.018;2022-10-15T00:16:17;98.93;;;44.42;;
31674;SDS011;18276;45.520;11.018;2022-10-15T00:18:46;85.90;;;42.95;;
31674;SDS011;18276;45.520;11.018;2022-10-15T00:21:14;78.18;;;41.78;;
31674;SDS011;18276;45.520;11.018;2022-10-15T00:23:43;81.07;;;43.08;;
31674;SDS011;18276;45.520;11.018;2022-10-15T00:26:12;86.90;;;42.97;;
31674;SDS011;18276;45.520;11.018;2022-10-15T00:28:41;84.18;;;44.33;;
31674;SDS011;18276;45.520;11.018;2022-10-15T00:31:11;88.70;;;44.00;;
31674;SDS011;18276;45.520;11.018;2022-10-15T00:33:39;88.70;;;41.28;;
31674;SDS011;18276;45.520;11.018;2022-10-15T00:38:44;85.75;;;41.95;;
31674;SDS011;18276;45.520;11.018;2022-10-15T00:41:15;83.85;;;39.90;;
31674;SDS011;18276;45.520;11.018;2022-10-15T00:43:47;90.90;;;42.38;;
31674;SDS011;18276;45.520;11.018;2022-10-15T00:48:47;77.50;;;40.30;;
31674;SDS011;18276;45.520;11.018;2022-10-15T00:51:19;84.75;;;39.30;;
31674;SDS011;18276;45.520;11.018;2022-10-15T00:53:47;79.40;;;39.92;;
31674;SDS011;18276;45.520;11.018;2022-10-15T00:56:16;81.07;;;40.78;;
31674;SDS011;18276;45.520;11.018;2022-10-15T00:58:47;85.07;;;40.08;;
31674;SDS011;18276;45.520;11.018;2022-10-15T01:01:14;82.03;;;41.00;;
31674;SDS011;18276;45.520;11.018;2022-10-15T01:03:42;81.57;;;40.65;;
31674;SDS011;18276;45.520;11.018;2022-10-15T01:06:09;79.13;;;39.67;;
31674;SDS011;18276;45.520;11.018;2022-10-15T01:08:36;81.68;;;39.95;;
31674;SDS011;18276;45.520;11.018;2022-10-15T01:16:54;76.55;;;39.97;;
31674;SDS011;18276;45.520;11.018;2022-10-15T01:27:24;73.28;;;39.17;;
31674;SDS011;18276;45.520;11.018;2022-10-15T01:32:52;72.78;;;37.20;;
31674;SDS011;18276;45.520;11.018;2022-10-15T01:43:35;77.20;;;35.30;;
31674;SDS011;18276;45.520;11.018;2022-10-15T01:46:45;82.47;;;37.53;;
31674;SDS011;18276;45.520;11.018;2022-10-15T01:49:22;69.03;;;35.80;;
31674;SDS011;18276;45.520;11.018;2022-10-15T01:51:53;74.22;;;36.35;;
31674;SDS011;18276;45.520;11.018;2022-10-15T01:54:23;76.78;;;39.60;;
31674;SDS011;18276;45.520;11.018;2022-10-15T01:56:52;77.22;;;38.20;;
31674;SDS011;18276;45.520;11.018;2022-10-15T01:59:21;74.10;;;35.97;;
31674;SDS011;18276;45.520;11.018;2022-10-15T02:01:52;66.88;;;33.28;;
31674;SDS011;18276;45.520;11.018;2022-10-15T02:04:27;65.88;;;32.97;;
31674;SDS011;18276;45.520;11.018;2022-10-15T02:09:38;64.15;;;32.30;;
31674;SDS011;18276;45.520;11.018;2022-10-15T02:12:34;65.18;;;33.72;;
31674;SDS011;18276;45.520;11.018;2022-10-15T02:17:57;75.05;;;37.15;;
31674;SDS011;18276;45.520;11.018;2022-10-15T02:21:06;77.43;;;39.03;;
31674;SDS011;18276;45.520;11.018;2022-10-15T02:26:24;71.53;;;37.05;;
31674;SDS011;18276;45.520;11.018;2022-10-15T02:28:55;75.05;;;33.83;;
31674;SDS011;18276;45.520;11.018;2022-10-15T02:31:24;67.13;;;32.88;;
31674;SDS011;18276;45.520;11.018;2022-10-15T02:33:55;69.15;;;33.38;;
31674;SDS011;18276;45.520;11.018;2022-10-15T02:36:27;66.55;;;33.00;;
31674;SDS011;18276;45.520;11.018;2022-10-15T02:38:55;65.03;;;33.30;;
31674;SDS011;18276;45.520;11.018;2022-10-15T02:41:23;71.55;;;34.05;;
31674;SDS011;18276;45.520;11.018;2022-10-15T02:43:50;76.03;;;34.45;;
31674;SDS011;18276;45.520;11.018;2022-10-15T02:46:17;67.68;;;34.22;;
31674;SDS011;18276;45.520;11.018;2022-10-15T02:48:45;68.30;;;33.63;;
31674;SDS011;18276;45.520;11.018;2022-10-15T02:51:16;69.18;;;33.55;;
31674;SDS011;18276;45.520;11.018;2022-10-15T02:53:42;70.28;;;34.63;;
31674;SDS011;18276;45.520;11.018;2022-10-15T02:56:09;68.38;;;33.70;;
31674;SDS011;18276;45.520;11.018;2022-10-15T02:58:37;68.03;;;34.05;;
31674;SDS011;18276;45.520;11.018;2022-10-15T03:01:04;71.03;;;33.78;;
31674;SDS011;18276;45.520;11.018;2022-10-15T03:03:32;63.65;;;34.65;;
31674;SDS011;18276;45.520;11.018;2022-10-15T03:05:59;67.90;;;34.03;;
31674;SDS011;18276;45.520;11.018;2022-10-15T03:08:26;69.15;;;32.25;;
31674;SDS011;18276;45.520;11.018;2022-10-15T03:10:54;73.80;;;35.85;;
31674;SDS011;18276;45.520;11.018;2022-10-15T03:13:22;74.47;;;36.22;;
31674;SDS011;18276;45.520;11.018;2022-10-15T03:15:51;69.18;;;34.92;;
31674;SDS011;18276;45.520;11.018;2022-10-15T03:18:20;66.47;;;35.50;;
31674;SDS011;18276;45.520;11.018;2022-10-15T03:20:54;69.95;;;35.17;;
31674;SDS011;18276;45.520;11.018;2022-10-15T03:23:21;65.55;;;34.58;;
31674;SDS011;18276;45.520;11.018;2022-10-15T03:25:56;74.28;;;34.50;;
31674;SDS011;18276;45.520;11.018;2022-10-15T03:28:24;67.10;;;37.13;;
31674;SDS011;18276;45.520;11.018;2022-10-15T03:30:51;79.72;;;37.28;;
31674;SDS011;18276;45.520;11.018;2022-10-15T03:33:18;74.88;;;37.08;;
31674;SDS011;18276;45.520;11.018;2022-10-15T03:35:51;79.68;;;36.78;;
31674;SDS011;18276;45.520;11.018;2022-10-15T03:38:18;72.38;;;37.20;;
31674;SDS011;18276;45.520;11.018;2022-10-15T03:40:48;72.07;;;36.30;;
31674;SDS011;18276;45.520;11.018;2022-10-15T03:43:29;79.30;;;37.65;;
31674;SDS011;18276;45.520;11.018;2022-10-15T03:46:02;72.40;;;37.58;;
31674;SDS011;18276;45.520;11.018;2022-10-15T03:48:34;75.65;;;37.47;;
31674;SDS011;18276;45.520;11.018;2022-10-15T03:51:01;74.68;;;39.28;;
31674;SDS011;18276;45.520;11.018;2022-10-15T03:53:28;86.55;;;40.15;;
31674;SDS011;18276;45.520;11.018;2022-10-15T03:56:01;75.40;;;38.22;;
31674;SDS011;18276;45.520;11.018;2022-10-15T03:58:35;77.88;;;38.38;;
31674;SDS011;18276;45.520;11.018;2022-10-15T04:01:12;81.43;;;36.90;;
31674;SDS011;18276;45.520;11.018;2022-10-15T04:03:41;73.68;;;38.40;;
31674;SDS011;18276;45.520;11.018;2022-10-15T04:06:08;79.13;;;38.70;;
31674;SDS011;18276;45.520;11.018;2022-10-15T04:08:37;81.60;;;39.50;;
31674;SDS011;18276;45.520;11.018;2022-10-15T04:11:17;80.22;;;39.08;;
31674;SDS011;18276;45.520;11.018;2022-10-15T04:13:51;78.25;;;39.60;;
31674;SDS011;18276;45.520;11.018;2022-10-15T04:16:18;80.55;;;40.72;;
31674;SDS011;18276;45.520;11.018;2022-10-15T04:18:46;82.22;;;40.83;;
31674;SDS011;18276;45.520;11.018;2022-10-15T04:21:13;86.47;;;41.28;;
31674;SDS011;18276;45.520;11.018;2022-10-15T04:23:44;85.57;;;40.95;;
31674;SDS011;18276;45.520;11.018;2022-10-15T04:26:21;78.03;;;40.25;;
31674;SDS011;18276;45.520;11.018;2022-10-15T04:28:48;83.38;;;41.63;;
31674;SDS011;18276;45.520;11.018;2022-10-15T04:31:18;89.68;;;42.30;;
31674;SDS011;18276;45.520;11.018;2022-10-15T04:33:49;83.47;;;42.92;;
31674;SDS011;18276;45.520;11.018;2022-10-15T04:36:16;86.95;;;43.80;;
31674;SDS011;18276;45.520;11.018;2022-10-15T04:38:52;86.45;;;43.55;;
31674;SDS011;18276;45.520;11.018;2022-10-15T04:41:45;87.93;;;41.72;;
31674;SDS011;18276;45.520;11.018;2022-10-15T04:44:16;89.28;;;42.15;;
31674;SDS011;18276;45.520;11.018;2022-10-15T04:46:49;98.25;;;43.83;;
31674;SDS011;18276;45.520;11.018;2022-10-15T04:49:39;94.25;;;44.05;;
31674;SDS011;18276;45.520;11.018;2022-10-15T04:52:21;91.85;;;42.75;;
31674;SDS011;18276;45.520;11.018;2022-10-15T04:54:55;86.55;;;43.20;;
31674;SDS011;18276;45.520;11.018;2022-10-15T04:57:23;96.55;;;44.95;;
31674;SDS011;18276;45.520;11.018;2022-10-15T04:59:53;91.38;;;44.97;;
31674;SDS011;18276;45.520;11.018;2022-10-15T05:02:32;90.53;;;43.22;;
31674;SDS011;18276;45.520;11.018;2022-10-15T05:05:28;96.25;;;43.40;;
31674;SDS011;18276;45.520;11.018;2022-10-15T05:07:58;99.40;;;46.00;;
31674;SDS011;18276;45.520;11.018;2022-10-15T05:10:27;96.50;;;44.33;;
31674;SDS011;18276;45.520;11.018;2022-10-15T05:12:56;91.80;;;44.65;;
31674;SDS011;18276;45.520;11.018;2022-10-15T05:17:57;100.80;;;45.28;;
31674;SDS011;18276;45.520;11.018;2022-10-15T05:20:32;95.38;;;45.17;;
31674;SDS011;18276;45.520;11.018;2022-10-15T05:22:59;90.65;;;46.33;;
31674;SDS011;18276;45.520;11.018;2022-10-15T05:25:31;94.78;;;46.25;;
31674;SDS011;18276;45.520;11.018;2022-10-15T05:27:59;102.45;;;46.53;;
31674;SDS011;18276;45.520;11.018;2022-10-15T05:30:26;103.35;;;48.92;;
31674;SDS011;18276;45.520;11.018;2022-10-15T05:32:55;96.43;;;47.40;;
31674;SDS011;18276;45.520;11.018;2022-10-15T05:35:22;94.50;;;48.17;;
31674;SDS011;18276;45.520;11.018;2022-10-15T05:38:00;99.55;;;47.85;;
31674;SDS011;18276;45.520;11.018;2022-10-15T05:40:27;103.85;;;50.28;;
31674;SDS011;18276;45.520;11.018;2022-10-15T05:43:08;96.85;;;46.72;;
31674;SDS011;18276;45.520;11.018;2022-10-15T05:45:35;102.35;;;48.90;;
31674;SDS011;18276;45.520;11.018;2022-10-15T05:48:04;112.82;;;48.95;;
31674;SDS011;18276;45.520;11.018;2022-10-15T05:50:31;103.82;;;48.78;;
31674;SDS011;18276;45.520;11.018;2022-10-15T05:53:00;101.07;;;50.13;;
31674;SDS011;18276;45.520;11.018;2022-10-15T05:55:43;110.05;;;49.83;;
31674;SDS011;18276;45.520;11.018;2022-10-15T05:58:10;100.55;;;47.60;;
31674;SDS011;18276;45.520;11.018;2022-10-15T06:00:37;108.20;;;48.05;;
31674;SDS011;18276;45.520;11.018;2022-10-15T06:03:10;94.75;;;46.25;;
31674;SDS011;18276;45.520;11.018;2022-10-15T06:05:40;111.10;;;48.92;;
31674;SDS011;18276;45.520;11.018;2022-10-15T06:08:07;99.63;;;48.72;;
31674;SDS011;18276;45.520;11.018;2022-10-15T06:10:35;102.95;;;48.92;;
31674;SDS011;18276;45.520;11.018;2022-10-15T06:13:03;108.97;;;48.47;;
31674;SDS011;18276;45.520;11.018;2022-10-15T06:15:31;116.28;;;51.53;;
31674;SDS011;18276;45.520;11.018;2022-10-15T06:18:00;108.25;;;48.08;;
31674;SDS011;18276;45.520;11.018;2022-10-15T06:20:27;106.07;;;50.00;;
31674;SDS011;18276;45.520;11.018;2022-10-15T06:22:57;105.70;;;50.45;;
31674;SDS011;18276;45.520;11.018;2022-10-15T06:25:25;115.20;;;49.28;;
31674;SDS011;18276;45.520;11.018;2022-10-15T06:27:53;109.22;;;50.40;;
31674;SDS011;18276;45.520;11.018;2022-10-15T06:30:22;112.82;;;51.05;;
31674;SDS011;18276;45.520;11.018;2022-10-15T06:32:50;113.15;;;51.47;;
31674;SDS011;18276;45.520;11.018;2022-10-15T06:35:19;111.60;;;50.45;;
31674;SDS011;18276;45.520;11.018;2022-10-15T06:37:47;105.45;;;48.85;;
31674;SDS011;18276;45.520;11.018;2022-10-15T06:40:14;106.35;;;49.33;;
31674;SDS011;18276;45.520;11.018;2022-10-15T06:42:42;102.95;;;50.38;;
31674;SDS011;18276;45.520;11.018;2022-10-15T06:45:09;105.00;;;50.67;;
31674;SDS011;18276;45.520;11.018;2022-10-15T06:47:38;102.78;;;50.40;;
31674;SDS011;18276;45.520;11.018;2022-10-15T06:50:06;96.80;;;48.25;;
31674;SDS011;18276;45.520;11.018;2022-10-15T06:52:35;103.63;;;48.78;;
31674;SDS011;18276;45.520;11.018;2022-10-15T06:55:03;104.93;;;49.53;;
31674;SDS011;18276;45.520;11.018;2022-10-15T06:57:30;99.85;;;49.05;;
31674;SDS011;18276;45.520;11.018;2022-10-15T06:59:57;105.35;;;47.83;;
31674;SDS011;18276;45.520;11.018;2022-10-15T07:02:24;102.30;;;48.45;;
31674;SDS011;18276;45.520;11.018;2022-10-15T07:04:51;106.75;;;50.20;;
31674;SDS011;18276;45.520;11.018;2022-10-15T07:07:18;106.93;;;50.53;;
31674;SDS011;18276;45.520;11.018;2022-10-15T07:09:45;104.07;;;49.83;;
31674;SDS011;18276;45.520;11.018;2022-10-15T07:12:13;99.93;;;47.63;;
31674;SDS011;18276;45.520;11.018;2022-10-15T07:14:41;98.13;;;49.88;;
31674;SDS011;18276;45.520;11.018;2022-10-15T07:17:08;101.38;;;48.50;;
31674;SDS011;18276;45.520;11.018;2022-10-15T07:19:35;98.28;;;49.80;;
31674;SDS011;18276;45.520;11.018;2022-10-15T07:22:02;102.28;;;50.08;;
31674;SDS011;18276;45.520;11.018;2022-10-15T07:24:29;98.55;;;49.75;;
31674;SDS011;18276;45.520;11.018;2022-10-15T07:26:56;103.28;;;51.00;;
31674;SDS011;18276;45.520;11.018;2022-10-15T07:29:23;98.07;;;47.88;;
31674;SDS011;18276;45.520;11.018;2022-10-15T07:31:50;103.22;;;48.47;;
31674;SDS011;18276;45.520;11.018;2022-10-15T07:34:17;99.70;;;50.65;;
31674;SDS011;18276;45.520;11.018;2022-10-15T07:36:44;104.85;;;51.00;;
31674;SDS011;18276;45.520;11.018;2022-10-15T07:39:11;100.30;;;51.10;;
31674;SDS011;18276;45.520;11.018;2022-10-15T07:41:38;100.75;;;49.55;;
31674;SDS011;18276;45.520;11.018;2022-10-15T07:44:05;96.65;;;50.83;;
31674;SDS011;18276;45.520;11.018;2022-10-15T07:46:32;94.78;;;50.83;;
31674;SDS011;18276;45.520;11.018;2022-10-15T07:48:59;95.50;;;50.80;;
31674;SDS011;18276;45.520;11.018;2022-10-15T07:51:26;95.13;;;49.03;;
31674;SDS011;18276;45.520;11.018;2022-10-15T07:53:54;95.47;;;51.17;;
31674;SDS011;18276;45.520;11.018;2022-10-15T07:56:21;96.85;;;48.38;;
31674;SDS011;18276;45.520;11.018;2022-10-15T07:58:48;95.03;;;49.30;;
31674;SDS011;18276;45.520;11.018;2022-10-15T08:01:18;89.68;;;48.00;;
31674;SDS011;18276;45.520;11.018;2022-10-15T08:03:46;95.47;;;49.47;;
31674;SDS011;18276;45.520;11.018;2022-10-15T08:06:13;92.65;;;49.13;;
31674;SDS011;18276;45.520;11.018;2022-10-15T08:08:41;92.40;;;48.30;;
31674;SDS011;18276;45.520;11.018;2022-10-15T08:11:09;95.80;;;51.47;;
31674;SDS011;18276;45.520;11.018;2022-10-15T08:13:38;89.20;;;49.58;;
31674;SDS011;18276;45.520;11.018;2022-10-15T08:16:08;89.00;;;50.78;;
31674;SDS011;18276;45.520;11.018;2022-10-15T08:18:36;94.10;;;50.83;;
31674;SDS011;18276;45.520;11.018;2022-10-15T08:21:04;92.85;;;49.40;;
31674;SDS011;18276;45.520;11.018;2022-10-15T08:23:33;97.43;;;49.72;;
31674;SDS011;18276;45.520;11.018;2022-10-15T08:26:01;89.70;;;48.95;;
31674;SDS011;18276;45.520;11.018;2022-10-15T08:28:29;85.72;;;50.13;;
31674;SDS011;18276;45.520;11.018;2022-10-15T08:30:57;84.57;;;49.15;;
31674;SDS011;18276;45.520;11.018;2022-10-15T08:35:58;87.55;;;48.25;;
31674;SDS011;18276;45.520;11.018;2022-10-15T08:38:25;82.57;;;45.67;;
31674;SDS011;18276;45.520;11.018;2022-10-15T08:40:56;83.95;;;46.30;;
31674;SDS011;18276;45.520;11.018;2022-10-15T08:43:29;81.25;;;46.65;;
31674;SDS011;18276;45.520;11.018;2022-10-15T08:46:10;88.68;;;47.33;;
31674;SDS011;18276;45.520;11.018;2022-10-15T08:48:43;82.10;;;47.85;;
31674;SDS011;18276;45.520;11.018;2022-10-15T08:51:17;87.90;;;50.00;;
31674;SDS011;18276;45.520;11.018;2022-10-15T08:53:52;87.22;;;49.63;;
31674;SDS011;18276;45.520;11.018;2022-10-15T08:56:23;89.55;;;50.33;;
31674;SDS011;18276;45.520;11.018;2022-10-15T08:59:00;87.57;;;47.63;;
31674;SDS011;18276;45.520;11.018;2022-10-15T09:05:07;80.10;;;46.67;;
31674;SDS011;18276;45.520;11.018;2022-10-15T09:07:11;82.70;;;48.05;;
31674;SDS011;18276;45.520;11.018;2022-10-15T09:10:38;93.20;;;46.42;;
31674;SDS011;18276;45.520;11.018;2022-10-15T09:12:47;90.03;;;47.13;;
31674;SDS011;18276;45.520;11.018;2022-10-15T09:15:18;86.68;;;48.25;;
31674;SDS011;18276;45.520;11.018;2022-10-15T09:17:53;86.57;;;47.15;;
31674;SDS011;18276;45.520;11.018;2022-10-15T09:20:30;92.78;;;47.78;;
31674;SDS011;18276;45.520;11.018;2022-10-15T09:22:59;93.43;;;46.83;;
31674;SDS011;18276;45.520;11.018;2022-10-15T09:25:48;99.47;;;51.53;;
31674;SDS011;18276;45.520;11.018;2022-10-15T09:31:34;97.43;;;51.17;;
31674;SDS011;18276;45.520;11.018;2022-10-15T09:36:55;90.38;;;48.15;;
31674;SDS011;18276;45.520;11.018;2022-10-15T09:42:35;97.32;;;50.45;;
31674;SDS011;18276;45.520;11.018;2022-10-15T09:45:14;93.50;;;49.10;;
31674;SDS011;18276;45.520;11.018;2022-10-15T09:47:42;97.32;;;50.55;;
31674;SDS011;18276;45.520;11.018;2022-10-15T09:50:10;97.47;;;49.90;;
31674;SDS011;18276;45.520;11.018;2022-10-15T09:58:20;99.78;;;52.38;;
31674;SDS011;18276;45.520;11.018;2022-10-15T10:00:59;95.18;;;53.28;;
31674;SDS011;18276;45.520;11.018;2022-10-15T10:03:33;94.28;;;53.30;;
31674;SDS011;18276;45.520;11.018;2022-10-15T10:06:06;104.07;;;52.42;;
31674;SDS011;18276;45.520;11.018;2022-10-15T10:08:51;106.65;;;51.63;;
31674;SDS011;18276;45.520;11.018;2022-10-15T10:11:21;99.30;;;52.42;;
31674;SDS011;18276;45.520;11.018;2022-10-15T10:13:56;96.68;;;52.00;;
31674;SDS011;18276;45.520;11.018;2022-10-15T10:16:25;98.30;;;52.58;;
31674;SDS011;18276;45.520;11.018;2022-10-15T10:19:01;102.15;;;53.53;;
31674;SDS011;18276;45.520;11.018;2022-10-15T10:21:32;104.47;;;52.78;;
31674;SDS011;18276;45.520;11.018;2022-10-15T10:24:22;108.32;;;54.67;;
31674;SDS011;18276;45.520;11.018;2022-10-15T10:26:56;97.63;;;52.72;;
31674;SDS011;18276;45.520;11.018;2022-10-15T10:29:25;102.85;;;53.50;;
31674;SDS011;18276;45.520;11.018;2022-10-15T10:32:11;107.68;;;55.45;;
31674;SDS011;18276;45.520;11.018;2022-10-15T10:34:47;105.57;;;52.70;;
31674;SDS011;18276;45.520;11.018;2022-10-15T10:37:18;105.38;;;54.03;;
31674;SDS011;18276;45.520;11.018;2022-10-15T10:39:50;100.30;;;53.00;;
31674;SDS011;18276;45.520;11.018;2022-10-15T10:42:26;106.07;;;55.22;;
31674;SDS011;18276;45.520;11.018;2022-10-15T10:47:44;108.93;;;54.22;;
31674;SDS011;18276;45.520;11.018;2022-10-15T10:50:28;111.00;;;56.42;;
31674;SDS011;18276;45.520;11.018;2022-10-15T10:53:03;101.30;;;52.33;;
31674;SDS011;18276;45.520;11.018;2022-10-15T10:55:43;101.72;;;54.92;;
31674;SDS011;18276;45.520;11.018;2022-10-15T10:58:16;101.30;;;57.55;;
31674;SDS011;18276;45.520;11.018;2022-10-15T11:00:51;107.30;;;54.90;;
31674;SDS011;18276;45.520;11.018;2022-10-15T11:03:30;95.07;;;53.20;;
31674;SDS011;18276;45.520;11.018;2022-10-15T11:30:50;107.07;;;54.47;;
31674;SDS011;18276;45.520;11.018;2022-10-15T11:50:29;102.88;;;55.17;;
31674;SDS011;18276;45.520;11.018;2022-10-15T11:55:57;98.63;;;53.20;;
31674;SDS011;18276;45.520;11.018;2022-10-15T11:58:31;105.30;;;54.80;;
31674;SDS011;18276;45.520;11.018;2022-10-15T12:01:01;110.90;;;56.45;;
31674;SDS011;18276;45.520;11.018;2022-10-15T12:03:38;102.35;;;55.35;;
31674;SDS011;18276;45.520;11.018;2022-10-15T12:06:16;101.78;;;54.72;;
31674;SDS011;18276;45.520;11.018;2022-10-15T12:08:46;110.10;;;57.15;;
31674;SDS011;18276;45.520;11.018;2022-10-15T12:17:19;107.15;;;54.58;;
31674;SDS011;18276;45.520;11.018;2022-10-15T12:20:01;112.32;;;53.97;;
31674;SDS011;18276;45.520;11.018;2022-10-15T12:30:34;106.33;;;55.60;;
31674;SDS011;18276;45.520;11.018;2022-10-15T12:33:03;101.70;;;54.70;;
31674;SDS011;18276;45.520;11.018;2022-10-15T12:41:52;99.22;;;50.75;;
31674;SDS011;18276;45.520;11.018;2022-10-15T12:46:47;94.72;;;51.67;;
31674;SDS011;18276;45.520;11.018;2022-10-15T12:51:58;92.63;;;51.42;;
31674;SDS011;18276;45.520;11.018;2022-10-15T12:54:33;85.72;;;49.72;;
31674;SDS011;18276;45.520;11.018;2022-10-15T12:59:59;89.85;;;48.45;;
31674;SDS011;18276;45.520;11.018;2022-10-15T13:03:06;82.00;;;48.00;;
31674;SDS011;18276;45.520;11.018;2022-10-15T13:07:54;80.50;;;47.92;;
31674;SDS011;18276;45.520;11.018;2022-10-15T13:10:26;73.80;;;45.33;;
31674;SDS011;18276;45.520;11.018;2022-10-15T13:13:04;79.97;;;48.95;;
31674;SDS011;18276;45.520;11.018;2022-10-15T13:15:32;83.97;;;50.85;;
31674;SDS011;18276;45.520;11.018;2022-10-15T13:18:03;76.97;;;47.65;;
31674;SDS011;18276;45.520;11.018;2022-10-15T13:20:35;79.38;;;47.08;;
31674;SDS011;18276;45.520;11.018;2022-10-15T13:23:06;86.43;;;49.95;;
31674;SDS011;18276;45.520;11.018;2022-10-15T13:26:29;84.68;;;46.85;;
31674;SDS011;18276;45.520;11.018;2022-10-15T13:28:52;78.40;;;48.08;;
31674;SDS011;18276;45.520;11.018;2022-10-15T13:33:59;77.82;;;50.13;;
31674;SDS011;18276;45.520;11.018;2022-10-15T13:36:36;79.95;;;47.95;;
31674;SDS011;18276;45.520;11.018;2022-10-15T13:39:06;75.22;;;46.65;;
31674;SDS011;18276;45.520;11.018;2022-10-15T13:42:01;76.97;;;49.15;;
31674;SDS011;18276;45.520;11.018;2022-10-15T13:44:34;79.82;;;46.85;;
31674;SDS011;18276;45.520;11.018;2022-10-15T13:47:01;80.28;;;48.05;;
31674;SDS011;18276;45.520;11.018;2022-10-15T13:49:42;73.93;;;46.85;;
31674;SDS011;18276;45.520;11.018;2022-10-15T13:52:09;79.95;;;47.22;;
31674;SDS011;18276;45.520;11.018;2022-10-15T13:54:36;75.30;;;45.30;;
31674;SDS011;18276;45.520;11.018;2022-10-15T13:57:04;78.38;;;46.30;;
31674;SDS011;18276;45.520;11.018;2022-10-15T13:59:31;79.43;;;46.42;;
31674;SDS011;18276;45.520;11.018;2022-10-15T14:01:59;72.60;;;45.47;;
31674;SDS011;18276;45.520;11.018;2022-10-15T14:04:28;73.22;;;45.80;;
31674;SDS011;18276;45.520;11.018;2022-10-15T14:07:00;74.10;;;46.30;;
31674;SDS011;18276;45.520;11.018;2022-10-15T14:09:47;73.70;;;44.53;;
31674;SDS011;18276;45.520;11.018;2022-10-15T14:12:15;77.97;;;46.78;;
31674;SDS011;18276;45.520;11.018;2022-10-15T14:14:43;80.50;;;45.45;;
31674;SDS011;18276;45.520;11.018;2022-10-15T14:19:47;73.57;;;45.08;;
31674;SDS011;18276;45.520;11.018;2022-10-15T14:22:42;71.32;;;43.50;;
31674;SDS011;18276;45.520;11.018;2022-10-15T14:25:14;76.53;;;43.67;;
31674;SDS011;18276;45.520;11.018;2022-10-15T14:27:51;74.03;;;45.95;;
31674;SDS011;18276;45.520;11.018;2022-10-15T14:30:31;78.68;;;45.35;;
31674;SDS011;18276;45.520;11.018;2022-10-15T14:35:30;79.72;;;45.65;;
31674;SDS011;18276;45.520;11.018;2022-10-15T14:40:30;79.82;;;45.83;;
31674;SDS011;18276;45.520;11.018;2022-10-15T14:43:01;80.00;;;46.50;;
31674;SDS011;18276;45.520;11.018;2022-10-15T14:48:10;79.22;;;45.35;;
31674;SDS011;18276;45.520;11.018;2022-10-15T14:50:46;77.20;;;46.13;;
31674;SDS011;18276;45.520;11.018;2022-10-15T14:53:20;84.10;;;46.13;;
31674;SDS011;18276;45.520;11.018;2022-10-15T14:55:58;74.90;;;43.28;;
31674;SDS011;18276;45.520;11.018;2022-10-15T14:58:28;76.10;;;43.92;;
31674;SDS011;18276;45.520;11.018;2022-10-15T15:01:03;78.18;;;45.25;;
31674;SDS011;18276;45.520;11.018;2022-10-15T15:03:47;86.35;;;45.72;;
31674;SDS011;18276;45.520;11.018;2022-10-15T15:06:16;79.18;;;44.80;;
31674;SDS011;18276;45.520;11.018;2022-10-15T15:08:43;76.38;;;43.38;;
31674;SDS011;18276;45.520;11.018;2022-10-15T15:11:17;80.90;;;45.05;;
31674;SDS011;18276;45.520;11.018;2022-10-15T15:13:48;73.90;;;42.67;;
31674;SDS011;18276;45.520;11.018;2022-10-15T15:16:15;72.00;;;42.53;;
31674;SDS011;18276;45.520;11.018;2022-10-15T15:18:43;76.50;;;43.35;;
31674;SDS011;18276;45.520;11.018;2022-10-15T15:21:12;69.43;;;42.25;;
31674;SDS011;18276;45.520;11.018;2022-10-15T15:23:42;72.10;;;41.00;;
31674;SDS011;18276;45.520;11.018;2022-10-15T15:26:09;75.90;;;42.50;;
31674;SDS011;18276;45.520;11.018;2022-10-15T15:28:36;83.05;;;43.38;;
31674;SDS011;18276;45.520;11.018;2022-10-15T15:31:09;73.65;;;40.45;;
31674;SDS011;18276;45.520;11.018;2022-10-15T15:33:40;76.05;;;41.70;;
31674;SDS011;18276;45.520;11.018;2022-10-15T15:36:14;78.22;;;40.88;;
31674;SDS011;18276;45.520;11.018;2022-10-15T15:38:57;79.60;;;40.83;;
31674;SDS011;18276;45.520;11.018;2022-10-15T15:41:25;78.82;;;40.75;;
31674;SDS011;18276;45.520;11.018;2022-10-15T15:43:52;76.32;;;42.55;;
31674;SDS011;18276;45.520;11.018;2022-10-15T15:46:22;79.22;;;42.85;;
31674;SDS011;18276;45.520;11.018;2022-10-15T15:48:49;78.10;;;42.83;;
31674;SDS011;18276;45.520;11.018;2022-10-15T15:51:18;76.50;;;41.13;;
31674;SDS011;18276;45.520;11.018;2022-10-15T15:53:47;77.53;;;42.90;;
31674;SDS011;18276;45.520;11.018;2022-10-15T15:56:14;82.32;;;43.17;;
31674;SDS011;18276;45.520;11.018;2022-10-15T15:58:42;81.30;;;44.38;;
31674;SDS011;18276;45.520;11.018;2022-10-15T16:01:09;79.25;;;44.38;;
31674;SDS011;18276;45.520;11.018;2022-10-15T16:03:37;80.93;;;41.72;;
31674;SDS011;18276;45.520;11.018;2022-10-15T16:06:05;81.55;;;42.60;;
31674;SDS011;18276;45.520;11.018;2022-10-15T16:08:34;87.18;;;44.72;;
31674;SDS011;18276;45.520;11.018;2022-10-15T16:11:03;82.20;;;44.50;;
31674;SDS011;18276;45.520;11.018;2022-10-15T16:13:31;77.90;;;42.92;;
31674;SDS011;18276;45.520;11.018;2022-10-15T16:15:59;77.05;;;42.00;;
31674;SDS011;18276;45.520;11.018;2022-10-15T16:18:26;89.30;;;43.22;;
31674;SDS011;18276;45.520;11.018;2022-10-15T16:20:53;85.75;;;45.90;;
31674;SDS011;18276;45.520;11.018;2022-10-15T16:23:20;80.82;;;43.63;;
31674;SDS011;18276;45.520;11.018;2022-10-15T16:25:47;85.70;;;43.80;;
31674;SDS011;18276;45.520;11.018;2022-10-15T16:28:14;79.53;;;43.58;;
31674;SDS011;18276;45.520;11.018;2022-10-15T16:30:41;80.97;;;42.75;;
31674;SDS011;18276;45.520;11.018;2022-10-15T16:33:08;86.90;;;44.25;;
31674;SDS011;18276;45.520;11.018;2022-10-15T16:35:36;80.93;;;43.45;;
31674;SDS011;18276;45.520;11.018;2022-10-15T16:38:03;91.10;;;44.45;;
31674;SDS011;18276;45.520;11.018;2022-10-15T16:40:30;89.90;;;45.53;;
31674;SDS011;18276;45.520;11.018;2022-10-15T16:42:57;87.15;;;43.88;;
31674;SDS011;18276;45.520;11.018;2022-10-15T16:45:25;84.88;;;43.30;;
31674;SDS011;18276;45.520;11.018;2022-10-15T16:47:52;85.28;;;42.80;;
31674;SDS011;18276;45.520;11.018;2022-10-15T16:50:19;93.47;;;44.05;;
31674;SDS011;18276;45.520;11.018;2022-10-15T16:52:47;93.10;;;46.33;;
31674;SDS011;18276;45.520;11.018;2022-10-15T16:55:14;91.13;;;44.17;;
31674;SDS011;18276;45.520;11.018;2022-10-15T16:57:42;95.63;;;43.05;;
31674;SDS011;18276;45.520;11.018;2022-10-15T17:00:10;89.35;;;44.58;;
31674;SDS011;18276;45.520;11.018;2022-10-15T17:02:37;90.43;;;47.70;;